Time;durP1;ratioP1;P1;durP2;ratioP2;P2;SDS_P1;SDS_P2;PMS_P1;PMS_P2;Temp;Humidity;BMP_temperature;BMP_pressure;BME280_temperature;BME280_humidity;BME280_pressure;Samples;Min_cycle;Max_cycle;Signal;HPM_P1;HPM_P2
2022/05/28 00:01:46;;;;;;;;;;;;;;;21.02;46.74;97252.97;4233906;28;5609;-64
2022/05/28 00:03:51;;;;;;;;;;;;;;;21.01;46.88;97248.66;4233989;28;5513;-64
2022/05/28 00:05:54;;;;;;;;;;;;;;;21.02;46.88;97247.56;4233966;28;6170;-65
2022/05/28 00:07:57;;;;;;;;;;;;;;;20.99;46.73;97248.09;4234880;28;5509;-64
2022/05/28 00:10:00;;;;;;;;;;;;;;;20.85;46.68;97242.25;4234278;28;5506;-64
2022/05/28 00:12:02;;;;;;;;;;;;;;;20.85;46.92;97240.38;4217684;28;5615;-64
2022/05/28 00:14:06;;;;;;;;;;;;;;;20.84;46.94;97236.06;4216764;28;5752;-64
2022/05/28 00:16:10;;;;;;;;;;;;;;;20.85;46.82;97231.50;4224039;28;7659;-65
2022/05/28 00:18:14;;;;;;;;;;;;;;;20.84;46.66;97230.69;4233972;28;5617;-65
2022/05/28 00:20:17;;;;;;;;;;;;;;;20.81;46.71;97233.03;4234388;28;5513;-64
2022/05/28 00:22:20;;;;;;;;;;;;;;;20.79;47.00;97235.19;4234603;28;6660;-65
2022/05/28 00:24:23;;;;;;;;;;;;;;;20.75;46.97;97229.50;4234658;28;5656;-64
2022/05/28 00:26:26;;;;;;;;;;;;;;;20.77;46.84;97229.25;4234134;28;5601;-65
2022/05/28 00:28:29;;;;;;;;;;;;;;;20.80;47.01;97229.56;4225270;28;5604;-65
2022/05/28 00:30:32;;;;;;;;;;;;;;;20.73;46.94;97228.94;4232792;28;5630;-64
2022/05/28 00:32:36;;;;;;;;;;;;;;;20.60;46.92;97213.94;4227637;28;5672;-64
2022/05/28 00:34:40;;;;;;;;;;;;;;;20.59;47.28;97227.63;4230233;28;5809;-64
2022/05/28 00:36:43;;;;;;;;;;;;;;;20.60;46.91;97229.25;4233764;28;5605;-64
2022/05/28 00:38:47;;;;;;;;;;;;;;;20.64;47.00;97225.03;4234141;28;5596;-64
2022/05/28 00:40:52;;;;;;;;;;;;;;;20.67;46.83;97221.03;4234225;28;5501;-64
2022/05/28 00:42:58;;;;;;;;;;;;;;;20.65;46.84;97223.97;4234677;28;5502;-64
2022/05/28 00:45:02;;;;;;;;;;;;;;;20.63;47.21;97212.66;4233136;28;5600;-64
2022/05/28 00:47:05;;;;;;;;;;;;;;;20.58;46.93;97207.19;4234963;28;5799;-65
2022/05/28 00:49:17;;;;;;;;;;;;;;;20.60;47.07;97208.56;4230213;28;5591;-65
2022/05/28 00:51:23;;;;;;;;;;;;;;;20.63;47.04;97201.91;4221117;28;5622;-65
2022/05/28 00:53:26;;;;;;;;;;;;;;;20.59;46.97;97203.44;4221065;28;5694;-64
2022/05/28 00:55:31;;;;;;;;;;;;;;;20.55;47.05;97199.66;4237679;28;5605;-65
2022/05/28 00:57:35;;;;;;;;;;;;;;;20.56;47.20;97201.28;4236315;28;5509;-64
2022/05/28 00:59:38;;;;;;;;;;;;;;;20.60;47.19;97197.81;4236874;28;5616;-64
2022/05/28 01:01:42;;;;;;;;;;;;;;;20.64;47.20;97198.97;4237891;28;5616;-65
2022/05/28 01:04:01;;;;;;;;;;;;;;;20.68;47.00;97199.28;4218184;28;5707;-65
2022/05/28 01:06:12;;;;;;;;;;;;;;;20.62;46.95;97200.28;4237559;28;5513;-64
2022/05/28 01:08:22;;;;;;;;;;;;;;;20.63;47.21;97196.53;4237280;28;5599;-65
2022/05/28 01:10:34;;;;;;;;;;;;;;;20.67;46.89;97194.97;4237881;28;5513;-65
2022/05/28 01:12:43;;;;;;;;;;;;;;;20.71;46.93;97193.41;4238028;28;5580;-65
2022/05/28 01:14:52;;;;;;;;;;;;;;;20.69;46.69;97184.78;4237358;28;5584;-65
2022/05/28 01:17:00;;;;;;;;;;;;;;;20.61;47.07;97194.13;4237543;28;5809;-65
2022/05/28 01:19:13;;;;;;;;;;;;;;;20.50;47.21;97191.50;4236996;28;5535;-65
2022/05/28 01:21:38;;;;;;;;;;;;;;;20.55;47.20;97184.34;4236836;28;5593;-64
2022/05/28 01:23:52;;;;;;;;;;;;;;;20.59;47.01;97188.16;4237288;28;5664;-65
2022/05/28 01:26:05;;;;;;;;;;;;;;;20.64;47.01;97190.91;4237624;28;6406;-64
2022/05/28 01:28:14;;;;;;;;;;;;;;;20.69;47.11;97189.34;4218258;28;5673;-64
2022/05/28 01:30:19;;;;;;;;;;;;;;;20.68;46.88;97190.41;4218227;28;5679;-64
2022/05/28 01:32:26;;;;;;;;;;;;;;;20.66;46.99;97182.63;4217960;28;5616;-64
2022/05/28 01:34:31;;;;;;;;;;;;;;;20.66;47.10;97181.81;4217568;28;5675;-64
2022/05/28 01:36:36;;;;;;;;;;;;;;;20.62;47.18;97173.44;4228379;28;5695;-65
2022/05/28 01:38:41;;;;;;;;;;;;;;;20.58;46.82;97178.47;4237109;28;5592;-64
2022/05/28 01:40:45;;;;;;;;;;;;;;;20.57;47.23;97176.03;4235812;28;5592;-65
2022/05/28 01:42:51;;;;;;;;;;;;;;;20.59;46.99;97174.72;4218858;28;5636;-64
2022/05/28 01:44:56;;;;;;;;;;;;;;;20.60;46.65;97175.53;4218200;28;6363;-64
2022/05/28 01:46:59;;;;;;;;;;;;;;;20.57;47.07;97165.28;4234053;28;5803;-64
2022/05/28 01:49:02;;;;;;;;;;;;;;;20.58;46.87;97166.91;4236407;28;6437;-65
2022/05/28 01:51:08;;;;;;;;;;;;;;;20.54;46.87;97165.78;4236964;28;5546;-65
2022/05/28 01:54:06;;;;;;;;;;;;;;;20.54;46.94;97149.69;4236469;28;5537;-64
2022/05/28 01:55:44;;;;;;;;;;;;;;;20.52;46.62;97152.63;4237066;28;5591;-65
2022/05/28 01:57:47;;;;;;;;;;;;;;;20.50;46.60;97148.53;4235516;28;6369;-64
2022/05/28 01:59:50;;;;;;;;;;;;;;;20.46;46.79;97142.03;4236165;28;5782;-64
2022/05/28 02:01:57;;;;;;;;;;;;;;;20.41;46.83;97142.75;4235908;28;5504;-65
2022/05/28 02:04:04;;;;;;;;;;;;;;;20.40;46.81;97143.00;4236854;28;5514;-65
2022/05/28 02:06:07;;;;;;;;;;;;;;;20.40;46.81;97137.63;4235699;28;5858;-65
2022/05/28 02:08:10;;;;;;;;;;;;;;;20.40;46.86;97133.09;4236658;28;5687;-64
2022/05/28 02:10:17;;;;;;;;;;;;;;;20.34;46.81;97134.88;4236533;28;5987;-64
2022/05/28 02:12:26;;;;;;;;;;;;;;;20.33;46.50;97135.94;4236719;28;5600;-64
2022/05/28 02:14:41;;;;;;;;;;;;;;;20.32;46.38;97128.94;4235763;28;5646;-64
2022/05/28 02:16:50;;;;;;;;;;;;;;;20.30;46.40;97130.25;4236239;28;6195;-64
2022/05/28 02:18:57;;;;;;;;;;;;;;;20.30;46.04;97125.69;4236059;28;5504;-64
2022/05/28 02:21:06;;;;;;;;;;;;;;;20.31;46.09;97124.63;4235918;28;5517;-65
2022/05/28 02:23:15;;;;;;;;;;;;;;;20.27;45.89;97118.13;4236085;28;5974;-64
2022/05/28 02:25:22;;;;;;;;;;;;;;;20.22;45.79;97117.25;4236607;28;5516;-64
2022/05/28 02:27:27;;;;;;;;;;;;;;;20.21;45.75;97123.66;4235638;28;5608;-64
2022/05/28 02:29:32;;;;;;;;;;;;;;;20.23;45.74;97114.31;4236137;28;5532;-64
2022/05/28 02:31:36;;;;;;;;;;;;;;;20.18;45.64;97110.75;4218278;28;5702;-65
2022/05/28 02:33:39;;;;;;;;;;;;;;;20.20;45.48;97111.31;4211056;28;5798;-64
2022/05/28 02:35:44;;;;;;;;;;;;;;;20.14;45.58;97117.66;4235245;28;5572;-64
2022/05/28 02:37:47;;;;;;;;;;;;;;;20.04;45.52;97105.69;4231135;28;6301;-65
2022/05/28 02:39:50;;;;;;;;;;;;;;;20.02;46.01;97099.75;4228092;28;5794;-65
2022/05/28 02:41:53;;;;;;;;;;;;;;;20.07;45.75;97104.41;4219403;28;5630;-64
2022/05/28 02:43:56;;;;;;;;;;;;;;;20.02;45.59;97102.44;4226677;28;5572;-65
2022/05/28 02:45:59;;;;;;;;;;;;;;;20.02;45.59;97101.63;4217139;28;5711;-64
2022/05/28 02:48:02;;;;;;;;;;;;;;;20.04;45.68;97096.84;4215711;28;5616;-64
2022/05/28 02:50:06;;;;;;;;;;;;;;;20.02;45.78;97098.94;4219054;28;5616;-64
2022/05/28 02:52:10;;;;;;;;;;;;;;;20.06;45.38;97100.09;4226297;28;5612;-65
2022/05/28 02:54:13;;;;;;;;;;;;;;;20.04;45.69;97102.19;4217931;28;5670;-64
2022/05/28 02:56:17;;;;;;;;;;;;;;;19.95;45.57;97085.72;4217977;28;5792;-64
2022/05/28 02:58:20;;;;;;;;;;;;;;;19.95;45.47;97090.28;4234971;28;5660;-64
2022/05/28 03:00:23;;;;;;;;;;;;;;;19.96;45.15;97091.91;4235520;28;5584;-64
2022/05/28 03:02:27;;;;;;;;;;;;;;;19.98;45.11;97090.59;4235119;28;5538;-64
2022/05/28 03:04:31;;;;;;;;;;;;;;;19.92;45.42;97088.88;4235403;28;5688;-64
2022/05/28 03:06:35;;;;;;;;;;;;;;;19.94;45.26;97096.72;4235802;28;5502;-64
2022/05/28 03:08:40;;;;;;;;;;;;;;;19.91;45.11;97086.44;4234847;28;5707;-65
2022/05/28 03:10:42;;;;;;;;;;;;;;;19.89;45.20;97088.56;4234648;28;6290;-64
2022/05/28 03:12:45;;;;;;;;;;;;;;;19.85;45.11;97087.44;4217304;28;5981;-64
2022/05/28 03:14:48;;;;;;;;;;;;;;;19.79;45.13;97089.22;4202147;28;5796;-64
2022/05/28 03:16:51;;;;;;;;;;;;;;;19.75;45.21;97080.84;4227612;28;6260;-65
2022/05/28 03:18:54;;;;;;;;;;;;;;;19.72;45.19;97086.72;4235092;28;5588;-64
2022/05/28 03:20:57;;;;;;;;;;;;;;;19.74;45.04;97083.78;4235462;28;5501;-65
2022/05/28 03:23:00;;;;;;;;;;;;;;;19.78;45.13;97082.22;4235523;28;5749;-64
2022/05/28 03:25:04;;;;;;;;;;;;;;;19.80;44.93;97080.09;4235379;28;5612;-64
2022/05/28 03:27:07;;;;;;;;;;;;;;;19.81;44.71;97078.22;4217273;28;6272;-64
2022/05/28 03:29:10;;;;;;;;;;;;;;;19.77;44.73;97070.69;4233332;28;5568;-64
2022/05/28 03:31:14;;;;;;;;;;;;;;;19.74;44.68;97065.81;4234975;28;5604;-65
2022/05/28 03:33:17;;;;;;;;;;;;;;;19.74;44.71;97071.19;4228790;28;5612;-64
2022/05/28 03:35:20;;;;;;;;;;;;;;;19.75;44.49;97074.69;4235067;28;6205;-64
2022/05/28 03:37:23;;;;;;;;;;;;;;;19.74;44.58;97065.81;4235149;28;5628;-64
2022/05/28 03:39:26;;;;;;;;;;;;;;;19.75;44.58;97070.13;4233693;28;5812;-64
2022/05/28 03:41:30;;;;;;;;;;;;;;;19.76;44.32;97069.06;4230279;28;5627;-64
2022/05/28 03:43:33;;;;;;;;;;;;;;;19.75;44.33;97072.81;4229905;28;5596;-64
2022/05/28 03:45:37;;;;;;;;;;;;;;;19.70;44.31;97061.16;4216403;28;5686;-64
2022/05/28 03:47:40;;;;;;;;;;;;;;;19.69;44.37;97070.28;4234430;28;5505;-64
2022/05/28 03:49:45;;;;;;;;;;;;;;;19.70;44.31;97063.84;4233375;28;5606;-64
2022/05/28 03:51:47;;;;;;;;;;;;;;;19.71;44.26;97069.00;4200073;28;5659;-64
2022/05/28 03:53:50;;;;;;;;;;;;;;;19.70;44.17;97064.66;4224657;28;5790;-64
2022/05/28 03:55:53;;;;;;;;;;;;;;;19.69;44.33;97063.03;4234903;28;5592;-64
2022/05/28 03:57:58;;;;;;;;;;;;;;;19.69;44.29;97060.34;4234602;28;5522;-65
2022/05/28 04:00:01;;;;;;;;;;;;;;;19.70;44.18;97070.03;4232954;28;5513;-64
2022/05/28 04:02:05;;;;;;;;;;;;;;;19.74;44.46;97060.44;4234469;28;6313;-64
2022/05/28 04:04:08;;;;;;;;;;;;;;;19.68;44.31;97072.16;4234460;28;5607;-64
2022/05/28 04:06:12;;;;;;;;;;;;;;;19.75;44.38;97062.06;4216863;28;5683;-64
2022/05/28 04:08:15;;;;;;;;;;;;;;;19.75;44.35;97075.47;4234651;28;5584;-65
2022/05/28 04:10:19;;;;;;;;;;;;;;;19.76;44.38;97074.44;4215365;28;5855;-64
2022/05/28 04:12:22;;;;;;;;;;;;;;;19.77;44.43;97081.41;4234812;28;5605;-64
2022/05/28 04:14:26;;;;;;;;;;;;;;;19.84;44.32;97080.44;4216116;28;5673;-65
2022/05/28 04:16:30;;;;;;;;;;;;;;;19.91;44.25;97081.88;4234760;28;5501;-64
2022/05/28 04:18:33;;;;;;;;;;;;;;;20.00;44.26;97085.78;4233998;28;5509;-64
2022/05/28 04:20:36;;;;;;;;;;;;;;;20.08;44.26;97081.88;4234187;28;5605;-64
2022/05/28 04:22:39;;;;;;;;;;;;;;;20.15;44.10;97082.50;4234638;28;5715;-65
2022/05/28 04:24:42;;;;;;;;;;;;;;;20.20;44.19;97089.84;4233707;28;5625;-65
2022/05/28 04:26:45;;;;;;;;;;;;;;;20.22;43.90;97083.16;4234633;28;5512;-64
2022/05/28 04:28:48;;;;;;;;;;;;;;;20.23;44.12;97084.78;4234208;28;5601;-64
2022/05/28 04:30:51;;;;;;;;;;;;;;;20.26;44.25;97091.50;4232669;28;5509;-64
2022/05/28 04:32:54;;;;;;;;;;;;;;;20.29;44.29;97094.53;4213432;28;5623;-64
2022/05/28 04:34:57;;;;;;;;;;;;;;;20.34;44.34;97097.28;4213866;28;5691;-64
2022/05/28 04:37:00;;;;;;;;;;;;;;;20.37;44.13;97098.66;4234719;28;5622;-65
2022/05/28 04:39:04;;;;;;;;;;;;;;;20.37;44.31;97098.66;4233975;28;5509;-64
2022/05/28 04:41:07;;;;;;;;;;;;;;;20.40;44.08;97089.31;4233219;28;5609;-65
2022/05/28 04:43:11;;;;;;;;;;;;;;;20.44;44.03;97095.81;4233754;28;5727;-64
2022/05/28 04:45:14;;;;;;;;;;;;;;;20.47;44.28;97093.44;4234142;28;5597;-64
2022/05/28 04:47:18;;;;;;;;;;;;;;;20.50;44.14;97092.13;4224226;28;5624;-64
2022/05/28 04:49:21;;;;;;;;;;;;;;;20.52;44.17;97090.03;4217668;28;5631;-64
2022/05/28 04:51:23;;;;;;;;;;;;;;;20.56;44.27;97088.47;4232101;28;5847;-64
2022/05/28 04:53:27;;;;;;;;;;;;;;;20.61;44.23;97091.19;4234121;28;5517;-64
2022/05/28 04:55:29;;;;;;;;;;;;;;;20.64;44.33;97082.66;4233964;28;5608;-65
2022/05/28 04:57:33;;;;;;;;;;;;;;;20.67;44.23;97095.59;4234007;28;5581;-65
2022/05/28 04:59:35;;;;;;;;;;;;;;;20.70;44.38;97087.03;4214968;28;5633;-64
2022/05/28 05:01:38;;;;;;;;;;;;;;;20.71;44.18;97085.97;4233591;28;5809;-64
2022/05/28 05:03:43;;;;;;;;;;;;;;;20.66;44.05;97088.59;4233785;28;5522;-65
2022/05/28 05:05:46;;;;;;;;;;;;;;;20.66;44.26;97080.53;4233893;28;5505;-64
2022/05/28 05:07:49;;;;;;;;;;;;;;;20.66;44.26;97090.47;4229831;28;5598;-64
2022/05/28 05:09:52;;;;;;;;;;;;;;;20.58;44.34;97097.06;4234392;28;5703;-64
2022/05/28 05:11:55;;;;;;;;;;;;;;;20.53;44.42;97083.59;4234280;28;5063;-64
2022/05/28 05:13:58;;;;;;;;;;;;;;;20.51;44.07;97091.09;4233782;28;5524;-64
2022/05/28 05:16:00;;;;;;;;;;;;;;;20.53;44.27;97086.28;4233617;28;5601;-64
2022/05/28 05:18:04;;;;;;;;;;;;;;;20.58;44.05;97095.19;4234135;28;5589;-65
2022/05/28 05:20:11;;;;;;;;;;;;;;;20.62;44.05;97093.66;4233647;28;5797;-64
2022/05/28 05:22:14;;;;;;;;;;;;;;;20.67;43.83;97090.22;4234214;28;5601;-64
2022/05/28 05:24:17;;;;;;;;;;;;;;;20.67;43.87;97084.84;4233976;28;5514;-64
2022/05/28 05:26:22;;;;;;;;;;;;;;;20.68;43.90;97093.72;4233585;28;5668;-64
2022/05/28 05:28:25;;;;;;;;;;;;;;;20.64;43.98;97085.34;4233615;28;5505;-64
2022/05/28 05:30:28;;;;;;;;;;;;;;;20.62;43.79;97090.97;4233410;28;5509;-64
2022/05/28 05:32:31;;;;;;;;;;;;;;;20.66;43.84;97093.97;4232817;28;5513;-64
2022/05/28 05:34:34;;;;;;;;;;;;;;;20.71;43.70;97088.63;4225396;28;5620;-64
2022/05/28 05:36:38;;;;;;;;;;;;;;;20.75;43.74;97100.53;4220463;28;5694;-64
2022/05/28 05:38:41;;;;;;;;;;;;;;;20.75;43.59;97092.47;4225201;28;5609;-64
2022/05/28 05:40:44;;;;;;;;;;;;;;;20.74;43.69;97088.16;4236502;28;5529;-64
2022/05/28 05:42:48;;;;;;;;;;;;;;;20.74;43.48;97090.84;4236122;28;5675;-64
2022/05/28 05:44:53;;;;;;;;;;;;;;;20.78;43.66;97089.28;4220138;28;5743;-64
2022/05/28 05:46:56;;;;;;;;;;;;;;;20.80;43.59;97087.16;4228807;28;6268;-64
2022/05/28 05:48:59;;;;;;;;;;;;;;;20.84;43.54;97082.91;4236881;28;5617;-64
2022/05/28 05:51:06;;;;;;;;;;;;;;;20.88;43.46;97086.72;4236900;28;5600;-64
2022/05/28 05:53:11;;;;;;;;;;;;;;;20.92;43.65;97081.63;4236918;28;5600;-64
2022/05/28 05:55:13;;;;;;;;;;;;;;;20.92;43.25;97081.63;4237065;28;5656;-64
2022/05/28 05:57:16;;;;;;;;;;;;;;;20.94;43.13;97085.69;4237103;28;5596;-65
2022/05/28 05:59:19;;;;;;;;;;;;;;;20.98;43.39;97080.63;4236693;28;5620;-64
2022/05/28 06:01:23;;;;;;;;;;;;;;;21.06;43.40;97076.66;4237194;28;5597;-65
2022/05/28 06:03:26;;;;;;;;;;;;;;;21.10;43.36;97073.25;4236443;28;7704;-65
2022/05/28 06:05:29;;;;;;;;;;;;;;;21.16;42.88;97082.16;4236746;28;5596;-64
2022/05/28 06:07:32;;;;;;;;;;;;;;;21.19;42.93;97082.47;4236185;28;5609;-64
2022/05/28 06:09:36;;;;;;;;;;;;;;;21.23;42.91;97072.84;4233276;28;6325;-64
2022/05/28 06:11:39;;;;;;;;;;;;;;;21.57;42.75;97087.97;4233647;28;5624;-64
2022/05/28 06:13:42;;;;;;;;;;;;;;;21.99;41.99;97082.66;4219942;28;5738;-64
2022/05/28 06:15:46;;;;;;;;;;;;;;;22.24;41.53;97074.75;4222613;28;5600;-64
2022/05/28 06:17:49;;;;;;;;;;;;;;;22.41;41.41;97071.88;4235801;28;5695;-64
2022/05/28 06:19:52;;;;;;;;;;;;;;;22.47;41.50;97081.63;4234911;28;6291;-64
2022/05/28 06:21:58;;;;;;;;;;;;;;;22.47;41.60;97076.22;4229657;28;5704;-64
2022/05/28 06:24:01;;;;;;;;;;;;;;;22.28;41.82;97066.97;4234541;28;6497;-64
2022/05/28 06:26:05;;;;;;;;;;;;;;;22.11;42.36;97077.09;4219737;28;5667;-64
2022/05/28 06:28:09;;;;;;;;;;;;;;;22.01;42.31;97065.16;4219726;28;5778;-64
2022/05/28 06:30:13;;;;;;;;;;;;;;;22.07;42.08;97061.44;4219299;28;5783;-64
2022/05/28 06:32:16;;;;;;;;;;;;;;;22.06;42.37;97070.59;4219125;28;5615;-64
2022/05/28 06:34:19;;;;;;;;;;;;;;;21.96;42.46;97069.69;4223217;28;5621;-64
2022/05/28 06:36:22;;;;;;;;;;;;;;;21.92;42.63;97063.22;4236326;28;5609;-64
2022/05/28 06:38:25;;;;;;;;;;;;;;;21.87;42.72;97069.38;4236111;28;5612;-64
2022/05/28 06:40:28;;;;;;;;;;;;;;;21.76;42.79;97065.00;4235753;28;5601;-64
2022/05/28 06:42:33;;;;;;;;;;;;;;;21.64;42.74;97056.28;4217853;28;5687;-64
2022/05/28 06:44:35;;;;;;;;;;;;;;;21.49;42.86;97076.59;4235661;28;5707;-64
2022/05/28 06:46:38;;;;;;;;;;;;;;;21.37;42.49;97070.56;4236385;28;5680;-64
2022/05/28 06:48:41;;;;;;;;;;;;;;;21.29;42.52;97067.53;4235830;28;6290;-64
2022/05/28 06:51:02;;;;;;;;;;;;;;;21.15;43.05;97064.41;4235503;28;5863;-64
2022/05/28 06:53:07;;;;;;;;;;;;;;;21.06;42.63;97065.91;4235400;28;5688;-65
2022/05/28 06:55:10;;;;;;;;;;;;;;;21.00;42.42;97065.06;4232684;28;6340;-64
2022/05/28 06:57:13;;;;;;;;;;;;;;;20.95;42.69;97067.69;4208195;28;5768;-65
2022/05/28 06:59:18;;;;;;;;;;;;;;;20.91;42.60;97066.56;4218860;28;5612;-67
2022/05/28 07:01:20;;;;;;;;;;;;;;;20.90;42.74;97078.38;4228435;28;5593;-64
2022/05/28 07:03:25;;;;;;;;;;;;;;;20.85;42.50;97065.72;4224147;28;5907;-65
2022/05/28 07:05:29;;;;;;;;;;;;;;;20.85;42.69;97064.91;4233369;28;5593;-65
2022/05/28 07:07:32;;;;;;;;;;;;;;;20.89;42.39;97066.03;4220294;28;5620;-65
2022/05/28 07:09:34;;;;;;;;;;;;;;;20.97;42.58;97056.72;4218968;28;5612;-65
2022/05/28 07:11:37;;;;;;;;;;;;;;;21.06;42.24;97058.66;4221607;28;5714;-64
2022/05/28 07:13:40;;;;;;;;;;;;;;;21.17;42.23;97057.69;4218259;28;5612;-65
2022/05/28 07:15:45;;;;;;;;;;;;;;;21.27;41.96;97057.03;4218884;28;5755;-65
2022/05/28 07:17:48;;;;;;;;;;;;;;;21.29;42.11;97060.25;4218530;28;5623;-64
2022/05/28 07:19:51;;;;;;;;;;;;;;;21.23;42.07;97055.88;4218935;28;5620;-65
2022/05/28 07:21:54;;;;;;;;;;;;;;;21.25;42.22;97052.94;4218641;28;5734;-65
2022/05/28 07:23:57;;;;;;;;;;;;;;;21.28;41.75;97058.66;4218687;28;5609;-65
2022/05/28 07:26:01;;;;;;;;;;;;;;;21.31;41.86;97052.78;4218650;28;6318;-65
2022/05/28 07:28:24;;;;;;;;;;;;;;;21.34;41.74;97062.22;4218825;28;5766;-65
2022/05/28 07:30:27;;;;;;;;;;;;;;;21.21;41.85;97053.47;4218505;28;5627;-65
2022/05/28 07:32:32;;;;;;;;;;;;;;;21.17;42.09;97052.31;4218526;28;6109;-66
2022/05/28 07:34:35;;;;;;;;;;;;;;;21.25;42.10;97059.13;4218017;28;5675;-65
2022/05/28 07:36:37;;;;;;;;;;;;;;;21.35;42.00;97053.06;4200200;28;5708;-64
2022/05/28 07:38:41;;;;;;;;;;;;;;;21.40;41.93;97053.91;4218390;28;5628;-65
2022/05/28 07:40:45;;;;;;;;;;;;;;;21.47;41.67;97041.06;4218129;28;5687;-65
2022/05/28 07:42:47;;;;;;;;;;;;;;;21.48;41.68;97041.88;4218318;28;5687;-64
2022/05/28 07:44:55;;;;;;;;;;;;;;;21.39;41.78;97044.22;4226010;28;5817;-65
2022/05/28 07:46:58;;;;;;;;;;;;;;;21.32;41.96;97042.84;4235121;28;5605;-65
2022/05/28 07:49:04;;;;;;;;;;;;;;;21.28;41.77;97047.88;4229214;28;5809;-65
2022/05/28 07:51:08;;;;;;;;;;;;;;;21.23;41.86;97039.75;4197122;28;5819;-65
2022/05/28 07:53:12;;;;;;;;;;;;;;;21.17;41.73;97051.50;4215799;28;5743;-65
2022/05/28 07:55:15;;;;;;;;;;;;;;;21.17;41.55;97049.63;4215477;28;5722;-64
2022/05/28 07:57:18;;;;;;;;;;;;;;;21.15;41.59;97048.28;4214570;28;5727;-64
2022/05/28 07:59:21;;;;;;;;;;;;;;;21.12;41.89;97049.59;4215358;28;5703;-64
2022/05/28 08:01:26;;;;;;;;;;;;;;;21.08;41.98;97035.06;4215341;28;5707;-65
2022/05/28 08:03:30;;;;;;;;;;;;;;;21.06;41.76;97055.16;4196758;28;5820;-65
2022/05/28 08:05:34;;;;;;;;;;;;;;;21.03;41.79;97044.94;4215355;28;5719;-65
2022/05/28 08:07:37;;;;;;;;;;;;;;;21.04;41.59;97036.59;4215307;28;5718;-65
2022/05/28 08:09:40;;;;;;;;;;;;;;;21.01;41.53;97033.63;4215232;28;5711;-64
2022/05/28 08:11:43;;;;;;;;;;;;;;;21.03;41.82;97034.19;4215233;28;5707;-65
2022/05/28 08:13:46;;;;;;;;;;;;;;;21.02;41.59;97032.56;4215107;28;5714;-65
2022/05/28 08:15:51;;;;;;;;;;;;;;;20.97;41.41;97041.41;4215037;28;5827;-65
2022/05/28 08:17:54;;;;;;;;;;;;;;;20.97;41.38;97032.53;4214971;28;5719;-65
2022/05/28 08:19:57;;;;;;;;;;;;;;;21.00;41.39;97035.50;4215169;28;5722;-65
2022/05/28 08:24:22;;;;;;;;;;;;;;;21.04;41.06;97052.75;4215301;28;5766;-64
2022/05/28 08:26:25;;;;;;;;;;;;;;;21.01;41.34;97023.69;4215064;28;6388;-65
2022/05/28 08:28:28;;;;;;;;;;;;;;;21.02;40.97;97027.19;4215001;28;5716;-65
2022/05/28 08:30:31;;;;;;;;;;;;;;;21.05;41.01;97032.03;4196574;28;7220;-64
2022/05/28 08:32:34;;;;;;;;;;;;;;;21.00;40.64;97022.06;4214698;28;5698;-64
2022/05/28 08:34:37;;;;;;;;;;;;;;;21.07;40.85;97021.88;4217346;28;5711;-65
2022/05/28 08:36:40;;;;;;;;;;;;;;;21.07;40.68;97019.19;4227072;28;5687;-65
2022/05/28 08:38:44;;;;;;;;;;;;;;;21.06;40.70;97029.09;4220112;28;5722;-65
2022/05/28 08:40:52;;;;;;;;;;;;;;;21.12;40.90;97022.72;4214835;28;5901;-64
2022/05/28 08:42:55;;;;;;;;;;;;;;;21.19;41.02;97012.59;4225592;28;8438;-65
2022/05/28 08:45:04;;;;;;;;;;;;;;;21.25;40.89;97016.09;4231753;28;5695;-65
2022/05/28 08:47:15;;;;;;;;;;;;;;;21.30;40.39;97004.63;4231991;28;5683;-65
2022/05/28 08:49:22;;;;;;;;;;;;;;;21.31;40.19;97014.31;4231775;28;5687;-64
2022/05/28 08:51:35;;;;;;;;;;;;;;;21.34;40.16;97013.81;4231763;28;5876;-65
2022/05/28 08:53:44;;;;;;;;;;;;;;;21.40;40.10;97010.88;4213450;28;5769;-64
2022/05/28 08:55:53;;;;;;;;;;;;;;;21.43;40.08;97009.59;4230019;28;5791;-65
2022/05/28 08:58:00;;;;;;;;;;;;;;;21.43;40.04;96999.63;4223686;28;5781;-64
2022/05/28 09:00:08;;;;;;;;;;;;;;;21.46;40.37;97004.50;4227704;28;5785;-65
2022/05/28 09:02:20;;;;;;;;;;;;;;;21.50;40.21;97008.28;4214596;28;5842;-65
2022/05/28 09:04:28;;;;;;;;;;;;;;;21.54;40.21;96995.16;4211842;28;5675;-66
2022/05/28 09:06:35;;;;;;;;;;;;;;;21.59;40.03;97000.56;4225657;28;6228;-65
2022/05/28 09:08:41;;;;;;;;;;;;;;;21.63;40.26;97000.84;4234006;28;5836;-65
2022/05/28 09:10:47;;;;;;;;;;;;;;;21.64;39.89;96991.72;4235027;28;5773;-65
2022/05/28 09:12:56;;;;;;;;;;;;;;;21.64;39.81;96991.72;4226400;28;5762;-65
2022/05/28 09:14:59;;;;;;;;;;;;;;;21.67;40.14;96985.81;4218497;28;5706;-65
2022/05/28 09:17:07;;;;;;;;;;;;;;;21.68;40.01;96982.06;4217777;28;5840;-65
2022/05/28 09:19:15;;;;;;;;;;;;;;;21.67;40.01;96996.56;4217803;28;5612;-65
2022/05/28 09:21:18;;;;;;;;;;;;;;;21.66;40.17;96986.88;4216893;28;5715;-65
2022/05/28 09:23:21;;;;;;;;;;;;;;;21.61;40.09;96986.84;4217600;28;5779;-65
2022/05/28 09:25:30;;;;;;;;;;;;;;;21.56;40.15;96976.06;4228986;28;5704;-64
2022/05/28 09:27:42;;;;;;;;;;;;;;;21.59;40.37;96967.47;4234718;28;5781;-65
2022/05/28 09:30:04;;;;;;;;;;;;;;;21.62;39.64;96972.31;4234653;28;5612;-65
2022/05/28 09:32:15;;;;;;;;;;;;;;;21.58;39.95;96965.84;4234410;28;5703;-65
2022/05/28 09:34:37;;;;;;;;;;;;;;;21.56;39.88;96978.75;4206642;28;6552;-66
2022/05/28 09:36:56;;;;;;;;;;;;;;;21.58;39.64;96971.22;4217600;28;5711;-65
2022/05/28 09:39:04;;;;;;;;;;;;;;;21.60;39.74;96964.50;4229392;28;5727;-65
2022/05/28 09:41:20;;;;;;;;;;;;;;;21.62;39.74;96961.56;4234172;28;5676;-64
2022/05/28 09:43:40;;;;;;;;;;;;;;;21.65;39.57;96961.06;4233168;28;5731;-66
2022/05/28 09:45:53;;;;;;;;;;;;;;;21.73;39.31;96969.44;4234573;28;5699;-66
2022/05/28 09:47:56;;;;;;;;;;;;;;;21.72;39.19;96967.00;4215868;28;5726;-66
2022/05/28 09:49:59;;;;;;;;;;;;;;;21.74;39.39;96957.59;4234153;28;5739;-66
2022/05/28 09:52:08;;;;;;;;;;;;;;;21.80;39.05;96963.81;4234195;28;5692;-65
2022/05/28 09:54:16;;;;;;;;;;;;;;;21.83;38.99;96951.72;4234263;28;5703;-66
2022/05/28 09:56:24;;;;;;;;;;;;;;;21.86;39.01;96962.81;4234272;28;5711;-66
2022/05/28 09:58:30;;;;;;;;;;;;;;;21.85;38.86;96950.38;4233478;28;6476;-65
2022/05/28 10:00:35;;;;;;;;;;;;;;;21.87;38.81;96948.28;4233590;28;5695;-66
2022/05/28 10:04:28;;;;;;;;;;;;;;;21.87;38.57;96959.03;4233822;28;5692;-66
2022/05/28 10:05:11;;;;;;;;;;;;;;;21.89;38.82;96956.88;4232362;28;5704;-66
2022/05/28 10:07:14;;;;;;;;;;;;;;;21.89;38.79;96948.81;4230707;28;5734;-66
2022/05/28 10:09:19;;;;;;;;;;;;;;;21.99;38.63;96940.78;4233754;28;5715;-66
2022/05/28 10:11:23;;;;;;;;;;;;;;;22.08;38.21;96941.94;4233823;28;5789;-67
2022/05/28 10:13:28;;;;;;;;;;;;;;;22.07;38.19;96934.91;4215563;28;5790;-66
2022/05/28 10:15:38;;;;;;;;;;;;;;;22.10;38.20;96936.28;4233959;28;5715;-66
2022/05/28 10:17:52;;;;;;;;;;;;;;;22.14;38.09;96920.41;4215356;28;5758;-66
2022/05/28 10:19:57;;;;;;;;;;;;;;;22.15;38.19;96922.03;4233182;28;5695;-66
2022/05/28 10:22:03;;;;;;;;;;;;;;;22.17;38.07;96922.56;4233884;28;5691;-63
2022/05/28 10:24:18;;;;;;;;;;;;;;;22.17;37.91;96909.09;4213797;28;5833;-66
2022/05/28 10:26:23;;;;;;;;;;;;;;;22.20;37.65;96913.97;4231142;28;5712;-66
2022/05/28 10:28:30;;;;;;;;;;;;;;;22.27;38.11;96909.16;4233239;28;5612;-67
2022/05/28 10:30:38;;;;;;;;;;;;;;;22.31;37.68;96910.22;4212711;28;5783;-66
2022/05/28 10:32:49;;;;;;;;;;;;;;;22.37;37.43;96906.50;4230704;28;5971;-65
2022/05/28 10:35:00;;;;;;;;;;;;;;;22.42;37.74;96908.38;4222055;27;5710;-66
2022/05/28 10:37:09;;;;;;;;;;;;;;;22.44;37.43;96907.06;4222316;28;6404;-65
2022/05/28 10:39:16;;;;;;;;;;;;;;;22.43;37.62;96901.94;4214979;28;5776;-67
2022/05/28 10:41:22;;;;;;;;;;;;;;;22.40;37.50;96900.56;4233186;28;5777;-66
2022/05/28 10:43:28;;;;;;;;;;;;;;;22.42;37.02;96900.28;4233328;28;5716;-66
2022/05/28 10:45:37;;;;;;;;;;;;;;;22.45;37.16;96892.50;4233429;28;6053;-66
2022/05/28 10:48:09;;;;;;;;;;;;;;;22.52;36.84;96889.53;4233172;28;5692;-66
2022/05/28 10:50:20;;;;;;;;;;;;;;;22.56;37.20;96891.44;4219340;28;5762;-66
2022/05/28 10:52:36;;;;;;;;;;;;;;;22.59;37.11;96879.31;4216587;28;5769;-66
2022/05/28 10:54:59;;;;;;;;;;;;;;;22.62;37.18;96876.09;4214541;28;5725;-66
2022/05/28 10:57:19;;;;;;;;;;;;;;;22.63;37.08;96875.00;4233283;28;5934;-66
2022/05/28 10:59:49;;;;;;;;;;;;;;;22.58;36.49;96878.53;4232982;28;7662;-66
2022/05/28 11:02:01;;;;;;;;;;;;;;;22.56;36.40;96867.22;4233218;28;5716;-66
2022/05/28 11:04:37;;;;;;;;;;;;;;;22.57;36.65;96871.50;4232790;28;5746;-66
2022/05/28 11:07:18;;;;;;;;;;;;;;;22.62;36.48;96862.63;4214618;28;5793;-66